Latest Weather Observations for Low Head

IDT60801

Issued at 10:51 pm EST Saturday 13 July 2024 (issued every 10 minutes, with the page automatically refreshed every 10 minutes)

About weather observations | Map of weather stations | Latest weather observations for TAS | Other Formats
Station Details ID: 091293 Name: LOW HEAD Lat: -41.05 Lon: 146.79 Height: 3.0 m
Data from the previous 72 hours. | See also: Recent months at Low Head
Date/Time
EST
Temp
°C
App
Temp
°C
Dew
Point
°C
Rel
Hum
%
Delta-T
°C
Wind Press
QNH
hPa
Press
MSL
hPa
Rain since
9am
mm
Dir  Spd
km/h
Gust
km/h
Spd
kts
Gust
kts
13/10:30pm 6.4 2.0 4.6 88 0.8 SSE 17 20 9 11 1013.7 1013.7 0.0
13/10:00pm 5.9 1.4 4.2 89 0.7 SE 17 19 9 10 1013.8 1013.8 0.0
13/09:30pm 6.6 2.6 4.8 88 0.8 SE 15 19 8 10 1013.9 1013.9 0.0
13/09:00pm 6.2 1.6 3.9 85 1.0 SE 17 20 9 11 1013.8 1013.8 0.0
13/08:30pm 7.1 3.5 4.9 86 1.0 S 13 15 7 8 1013.6 1013.6 0.0
13/08:00pm 7.3 3.7 5.0 85 1.0 SSE 13 15 7 8 1013.7 1013.7 0.0
13/07:30pm 7.6 4.4 4.9 83 1.2 SSE 11 13 6 7 1013.7 1013.7 0.0
13/07:00pm 8.3 4.7 5.1 80 1.4 SSE 13 15 7 8 1013.8 1013.8 0.0
13/06:30pm 9.5 6.0 5.5 76 1.8 S 13 17 7 9 1013.8 1013.8 0.0
13/06:00pm 10.0 6.5 5.6 74 2.0 SSW 13 15 7 8 1013.7 1013.7 0.0
13/05:30pm 10.7 6.6 6.1 73 2.1 SW 17 20 9 11 1013.4 1013.4 0.0
13/05:00pm 11.2 6.7 6.1 71 2.4 WSW 19 20 10 11 1013.3 1013.3 0.0
13/04:30pm 11.3 6.7 5.6 68 2.6 WSW 19 20 10 11 1013.4 1013.4 0.0
13/04:00pm 11.5 6.9 5.8 68 2.6 W 19 20 10 11 1013.4 1013.4 0.0
13/03:30pm 11.9 8.9 5.8 66 2.8 W 11 13 6 7 1013.4 1013.4 0.0
13/03:00pm 11.8 8.2 5.2 64 3.0 WSW 13 15 7 8 1013.5 1013.5 0.0
13/02:30pm 11.3 8.3 5.8 69 2.6 W 11 15 6 8 1013.5 1013.5 0.0
13/02:00pm 11.9 8.2 4.4 60 3.4 S 13 15 7 8 1013.6 1013.6 0.0
13/01:30pm 11.5 7.4 4.5 62 3.2 S 15 17 8 9 1013.5 1013.5 0.0
13/01:00pm 11.2 7.2 4.7 64 2.9 S 15 19 8 10 1013.4 1013.4 0.0
13/12:30pm 11.0 6.9 4.5 64 2.9 SSE 15 19 8 10 1013.8 1013.8 0.0
13/12:00pm 10.5 6.9 4.9 68 2.5 S 13 15 7 8 1014.1 1014.1 0.0
13/11:30am 10.5 6.6 5.3 70 2.4 SSE 15 19 8 10 1014.4 1014.4 0.0
13/11:00am 10.3 6.5 5.9 74 2.0 SSE 15 20 8 11 1014.7 1014.7 0.0
13/10:30am 10.5 5.5 4.4 66 2.7 WSW 20 22 11 12 1014.8 1014.8 0.0
13/10:00am 10.3 5.6 5.3 71 2.3 WSW 19 22 10 12 1014.8 1014.8 0.0
13/09:30am 9.6 4.9 5.2 74 2.0 WSW 19 24 10 13 1014.6 1014.6 0.0
13/09:00am 8.7 5.2 5.3 79 1.5 S 13 17 7 9 1014.4 1014.4 1.0
13/08:30am 9.2 4.4 5.6 78 1.6 WSW 20 24 11 13 1014.2 1014.2 1.0
13/08:00am 9.2 4.6 5.4 77 1.7 WSW 19 22 10 12 1013.9 1013.9 1.0
13/07:30am 8.5 4.6 5.4 81 1.4 SW 15 19 8 10 1013.8 1013.8 1.0
13/07:00am 8.9 4.7 5.8 81 1.4 SW 17 20 9 11 1013.6 1013.6 1.0
13/06:30am 9.1 4.6 6.2 82 1.3 SW 19 20 10 11 1013.2 1013.2 1.0
13/06:00am 9.1 5.4 6.4 83 1.2 SW 15 17 8 9 1013.1 1013.1 1.0
13/05:30am 9.8 6.2 6.7 81 1.4 WSW 15 17 8 9 1012.8 1012.8 1.0
13/05:00am 10.3 6.0 7.0 80 1.6 WSW 19 20 10 11 1012.7 1012.7 1.0
13/04:30am 10.6 6.3 7.1 79 1.7 WSW 19 26 10 14 1012.7 1012.7 1.0
13/04:00am 10.6 6.0 6.7 77 1.8 WSW 20 26 11 14 1012.6 1012.6 1.0
13/03:30am 11.1 5.8 7.0 76 2.0 W 24 28 13 15 1012.6 1012.6 1.0
13/03:00am 11.1 5.0 6.8 75 2.0 W 28 32 15 17 1012.6 1012.6 1.0
13/02:30am 11.5 5.6 7.6 77 1.9 W 28 32 15 17 1012.6 1012.6 1.0
13/02:00am 11.6 5.0 7.9 78 1.8 W 32 35 17 19 1012.3 1012.3 1.0
13/01:30am 11.5 6.2 8.4 81 1.5 W 26 32 14 17 1012.1 1012.1 1.0
13/01:00am 11.6 5.5 8.3 80 1.6 W 30 33 16 18 1011.9 1011.9 1.0
13/12:30am 11.4 6.1 8.4 82 1.5 W 26 30 14 16 1011.9 1011.9 1.0
13/12:00am 11.5 5.9 8.7 83 1.4 W 28 32 15 17 1011.9 1011.9 1.0
 
Date/Time
EST
Temp
°C
App
Temp
°C
Dew
Point
°C
Rel
Hum
%
Delta-T
°C
Wind Press
QNH
hPa
Press
MSL
hPa
Rain since
9am
mm
Dir  Spd
km/h
Gust
km/h
Spd
kts
Gust
kts
12/11:30pm 11.7 5.4 9.1 84 1.3 W 32 37 17 20 1011.9 1011.9 1.0
12/11:00pm 11.7 5.9 9.6 87 1.1 W 30 35 16 19 1011.8 1011.8 1.0
12/10:30pm 11.3 5.6 9.7 90 0.8 WNW 30 35 16 19 1011.6 1011.6 1.0
12/10:00pm 11.2 4.9 9.6 90 0.8 WNW 33 39 18 21 1011.6 1011.6 0.6
12/09:42pm 11.9 5.2 9.8 87 1.1 WNW 35 44 19 24 1011.7 1011.7 0.4
12/09:30pm 12.8 6.6 10.0 83 1.4 NW 33 39 18 21 1011.5 1011.5 0.0
12/09:00pm 12.7 6.0 9.7 82 1.5 NW 35 41 19 22 1011.7 1011.7 0.0
12/08:30pm 12.7 6.5 9.5 81 1.6 NW 32 39 17 21 1011.8 1011.8 0.0
12/08:00pm 12.4 5.9 9.1 80 1.7 NW 33 39 18 21 1011.9 1011.9 0.0
12/07:30pm 12.4 5.9 8.9 79 1.8 NW 33 39 18 21 1011.7 1011.7 0.0
12/07:00pm 12.6 6.4 9.2 80 1.7 NW 32 37 17 20 1011.7 1011.7 0.0
12/06:30pm 12.5 6.7 9.3 81 1.6 NW 30 35 16 19 1011.5 1011.5 0.0
12/06:00pm 12.5 6.6 9.1 80 1.7 WNW 30 39 16 21 1011.7 1011.7 0.0
12/05:30pm 12.4 6.8 8.9 79 1.8 NW 28 33 15 18 1011.6 1011.6 0.0
12/05:00pm 12.5 6.9 8.8 78 1.8 NW 28 32 15 17 1011.6 1011.6 0.0
12/04:30pm 12.5 7.2 8.4 76 2.0 WNW 26 30 14 16 1011.7 1011.7 0.0
12/04:00pm 13.2 8.4 8.7 74 2.3 NW 24 30 13 16 1011.7 1011.7 0.0
12/03:30pm 13.3 8.4 8.6 73 2.4 NW 24 28 13 15 1011.8 1011.8 0.0
12/03:00pm 12.5 9.4 9.0 79 1.8 W 15 19 8 10 1011.8 1011.8 0.0
12/02:30pm 13.4 8.4 8.0 70 2.7 NW 24 32 13 17 1011.9 1011.9 0.0
12/02:00pm 13.5 9.5 9.2 75 2.2 WNW 20 26 11 14 1011.8 1011.8 0.0
12/01:30pm 14.4 10.8 10.0 75 2.3 WNW 19 22 10 12 1011.8 1011.8 0.0
12/01:00pm 13.6 11.1 9.6 77 2.0 WNW 13 15 7 8 1011.9 1011.9 0.0
12/12:30pm 13.5 11.0 9.6 77 2.0 WNW 13 17 7 9 1012.1 1012.1 0.0
12/12:00pm 12.5 9.9 9.3 81 1.6 W 13 17 7 9 1012.5 1012.5 0.0
12/11:30am 12.1 9.0 8.9 81 1.6 W 15 19 8 10 1012.8 1012.8 0.0
12/11:00am 12.1 9.0 8.9 81 1.6 W 15 20 8 11 1013.0 1013.0 0.0
12/10:30am 12.1 8.2 8.8 80 1.6 W 19 22 10 12 1013.3 1013.3 0.0
12/10:00am 11.9 7.7 8.4 79 1.7 W 20 24 11 13 1013.2 1013.2 0.0
12/09:30am 11.7 7.6 8.6 81 1.5 W 20 24 11 13 1013.0 1013.0 0.0
12/09:00am 11.3 6.7 8.2 81 1.5 W 22 24 12 13 1012.9 1012.9 5.4
12/08:30am 11.2 6.6 8.2 82 1.5 W 22 26 12 14 1012.7 1012.7 5.4
12/08:00am 11.5 6.3 8.9 84 1.3 W 26 30 14 16 1012.5 1012.5 5.4
12/07:30am 11.4 6.5 8.6 83 1.4 W 24 28 13 15 1012.7 1012.7 5.4
12/07:00am 11.4 6.1 8.4 82 1.5 W 26 30 14 16 1012.8 1012.8 5.4
12/06:30am 11.5 5.9 8.9 84 1.3 WNW 28 32 15 17 1012.4 1012.4 5.4
12/06:00am 11.6 5.0 8.6 82 1.5 W 33 41 18 22 1012.0 1012.0 5.4
12/05:30am 11.8 4.2 9.0 83 1.4 W 39 48 21 26 1011.2 1011.2 5.4
12/05:00am 11.9 3.4 9.1 83 1.4 W 44 56 24 30 1010.7 1010.7 5.4
12/04:30am 11.9 2.6 9.3 84 1.3 W 48 59 26 32 1009.9 1009.9 5.4
12/04:00am 12.1 3.5 10.2 88 1.0 WNW 46 56 25 30 1009.3 1009.3 5.4
12/03:30am 12.6 5.9 11.0 90 0.8 WNW 37 43 20 23 1009.1 1009.1 5.4
12/03:00am 12.6 6.2 10.8 89 0.9 NNW 35 43 19 23 1009.2 1009.2 5.4
12/02:58am 12.6 6.2 10.8 89 0.9 NNW 35 43 19 23 1009.1 1009.1 5.4
12/02:30am 12.6 4.8 11.2 91 0.7 N 43 50 23 27 1009.2 1009.2 5.4
12/02:00am 12.5 4.6 10.9 90 0.8 N 43 50 23 27 1009.9 1009.9 5.2
12/01:30am 12.1 4.2 10.7 91 0.7 N 43 52 23 28 1010.4 1010.4 4.8
12/01:00am 11.9 3.9 10.5 91 0.7 N 43 50 23 27 1010.8 1010.8 4.4
12/12:30am 11.8 3.5 10.0 89 0.9 N 44 56 24 30 1011.2 1011.2 4.0
12/12:00am 12.0 2.5 9.9 87 1.1 N 50 56 27 30 1011.5 1011.5 3.4
 
Date/Time
EST
Temp
°C
App
Temp
°C
Dew
Point
°C
Rel
Hum
%
Delta-T
°C
Wind Press
QNH
hPa
Press
MSL
hPa
Rain since
9am
mm
Dir  Spd
km/h
Gust
km/h
Spd
kts
Gust
kts
11/11:30pm 11.7 2.9 9.6 87 1.1 N 46 57 25 31 1011.9 1011.9 3.2
11/11:00pm 11.7 4.3 9.9 89 0.9 N 39 46 21 25 1012.2 1012.2 2.6
11/10:30pm 11.3 4.6 9.6 89 0.9 N 35 43 19 23 1012.5 1012.5 2.0
11/10:00pm 11.3 4.1 9.2 87 1.0 N 37 43 20 23 1012.7 1012.7 1.2
11/09:30pm 12.1 3.9 9.8 86 1.2 N 43 48 23 26 1013.0 1013.0 0.6
11/09:00pm 12.6 6.5 9.6 82 1.5 N 32 39 17 21 1012.8 1012.8 0.2
11/08:30pm 12.9 7.4 10.4 85 1.3 NNE 30 35 16 19 1012.5 1012.5 0.2
11/08:00pm 12.8 7.2 10.0 83 1.4 NNE 30 35 16 19 1012.4 1012.4 0.2
11/07:30pm 12.9 6.9 10.1 83 1.4 NNE 32 37 17 20 1012.5 1012.5 0.2
11/07:00pm 12.9 6.9 10.1 83 1.4 NNE 32 37 17 20 1012.9 1012.9 0.2
11/06:30pm 12.9 7.7 10.3 84 1.3 NNE 28 32 15 17 1012.9 1012.9 0.2
11/06:00pm 12.8 7.2 10.3 85 1.3 NNE 30 35 16 19 1013.1 1013.1 0.2
11/05:30pm 12.7 7.1 10.2 85 1.3 NNE 30 33 16 18 1012.9 1012.9 0.2
11/05:00pm 12.7 6.7 10.2 85 1.3 NNE 32 39 17 21 1013.3 1013.3 0.2
11/04:30pm 12.7 6.5 10.2 85 1.3 NNE 33 39 18 21 1013.5 1013.5 0.2
11/04:00pm 12.7 6.0 9.7 82 1.5 NE 35 43 19 23 1013.6 1013.6 0.2
11/03:30pm 12.8 6.0 9.3 79 1.8 NNE 35 43 19 23 1013.9 1013.9 0.2
11/03:00pm 12.8 5.9 8.7 76 2.0 NNE 35 43 19 23 1014.1 1014.1 0.2
11/02:30pm 13.1 6.1 8.6 74 2.2 N 35 39 19 21 1014.2 1014.2 0.2
11/02:00pm 13.4 6.3 8.0 70 2.7 N 35 43 19 23 1014.5 1014.5 0.2
11/01:30pm 13.2 5.8 8.5 73 2.3 N 37 44 20 24 1014.6 1014.6 0.2
11/01:00pm 13.4 5.8 8.9 74 2.3 NNW 39 50 21 27 1014.9 1014.9 0.2
11/12:30pm 13.0 5.3 8.7 75 2.2 NNW 39 50 21 27 1015.5 1015.5 0.0
11/12:00pm 13.0 5.0 9.1 77 2.0 NNW 41 46 22 25 1016.2 1016.2 0.0
11/11:30am 12.9 6.2 9.5 80 1.7 N 35 43 19 23 1016.7 1016.7 0.0
11/11:00am 12.8 6.4 9.4 80 1.7 N 33 39 18 21 1017.3 1017.3 0.0
11/10:30am 12.8 6.4 9.3 79 1.8 N 33 39 18 21 1017.4 1017.4 0.0
11/10:00am 12.7 6.5 9.3 80 1.7 N 32 35 17 19 1017.4 1017.4 0.0
11/09:30am 12.6 6.8 9.6 82 1.5 NNW 30 35 16 19 1017.4 1017.4 0.0
11/09:00am 12.5 7.2 9.7 83 1.4 NNW 28 33 15 18 1017.4 1017.4 1.0
11/08:30am 12.4 7.4 9.6 83 1.4 NNW 26 33 14 18 1017.3 1017.3 1.0
11/08:00am 11.8 7.5 9.4 85 1.2 NW 22 26 12 14 1016.9 1016.9 1.0
11/07:30am 9.8 7.3 8.1 89 0.8 SW 11 20 6 11 1017.2 1017.2 1.0
11/07:00am 9.1 6.5 7.7 91 0.7 SSE 11 17 6 9 1017.2 1017.2 1.0
11/06:30am 8.9 6.5 7.2 89 0.8 SSE 9 13 5 7 1017.2 1017.2 1.0
11/06:00am 8.6 5.7 6.7 88 0.9 SE 11 17 6 9 1017.1 1017.1 1.0
11/05:30am 9.1 5.6 7.2 88 0.9 ESE 15 17 8 9 1016.8 1016.8 1.0
11/05:00am 9.3 5.8 7.1 86 1.0 ESE 15 17 8 9 1016.7 1016.7 1.0
11/04:30am 9.1 6.2 6.4 83 1.2 SSE 11 11 6 6 1017.0 1017.0 1.0
11/04:00am 9.3 6.8 6.7 84 1.2 SSE 9 11 5 6 1017.1 1017.1 1.0
11/03:30am 9.8 7.4 7.1 83 1.3 SSE 9 11 5 6 1017.2 1017.2 1.0
11/03:00am 10.1 7.7 7.2 82 1.4 SSW 9 11 5 6 1017.1 1017.1 1.0
11/02:30am 10.5 7.9 7.6 82 1.4 SW 11 17 6 9 1017.0 1017.0 1.0
11/02:00am 10.8 6.7 7.9 82 1.4 W 19 24 10 13 1016.9 1016.9 1.0
11/01:30am 10.7 6.4 7.9 83 1.4 W 20 26 11 14 1016.9 1016.9 1.0
11/01:00am 10.5 5.0 7.7 83 1.3 W 26 32 14 17 1016.6 1016.6 1.0
11/12:30am 10.5 3.9 7.7 83 1.3 W 32 35 17 19 1016.9 1016.9 1.0
11/12:00am 10.4 4.1 7.6 83 1.3 W 30 37 16 20 1017.0 1017.0 1.0
 
Date/Time
EST
Temp
°C
App
Temp
°C
Dew
Point
°C
Rel
Hum
%
Delta-T
°C
Wind Press
QNH
hPa
Press
MSL
hPa
Rain since
9am
mm
Dir  Spd
km/h
Gust
km/h
Spd
kts
Gust
kts
10/11:30pm 10.4 2.4 7.6 83 1.3 W 39 46 21 25 1017.4 1017.4 1.0
10/11:00pm 10.6 2.4 8.0 84 1.3 W 41 48 22 26 1017.5 1017.5 1.0

Other formats

Comma delimited format used in spreadsheet applications
http://www.bom.gov.au/fwo/IDT60801/IDT60801.95964.axf

JavaScript Object Notation format (JSON) in row-major order
http://www.bom.gov.au/fwo/IDT60801/IDT60801.95964.json

Data quality

Most of these data are generated automatically and are frequently updated. Quality checks on data are not normally performed. It is possible for incorrect values to appear. Refer to information at About Latest Weather Observations and please check the disclaimer before using these data.